This demonstration page uses our WeatherBlox Daily Observations layout. Learn more.

Left ArrowRight Arrow

Hourly Observations for February 2, 2016

Temp ( °F °C ) Dew Point ( °F °C ) Humidity (%) Winds ( mph kmh ) Pressure ( in mb ) Visibility ( mi km ) Precip ( " mm )
12:51 am 00:51 Cloudy 38 3.3 29 -1.7 70 70 WNW 9 15 29.9 1012 10 16.0934 N/A
1:51 am 01:51 Cloudy 38 3.3 29 -1.7 70 70 WNW 12 19 29.89 1012 10 16.0934 N/A
2:51 am 02:51 Cloudy 38 3.3 26 -3.3 62 62 WNW 13 20 29.89 1012 10 16.0934 N/A
3:51 am 03:51 Clear 35 1.7 25 -3.9 67 67 WNW 9 15 29.9 1013 10 16.0934 N/A
4:51 am 04:51 Mostly Cloudy 35 1.7 24 -4.4 64 64 NW 14 22 29.9 1013 10 16.0934 N/A
5:51 am 05:51 Mostly Clear 33 0.6 24 -4.4 70 70 NW 8 13 29.93 1014 10 16.0934 N/A
6:51 am 06:51 Clear 32 undefined 24 -4.4 73 73 NW 10 17 29.96 1015 10 16.0934 N/A
7:51 am 07:51 Sunny 34 1.1 24 -4.4 67 67 WNW 12 19 29.99 1016 10 16.0934 N/A
8:51 am 08:51 Mostly Sunny 37 2.8 24 -4.4 59 59 NW 16 26 30.01 1016 10 16.0934 N/A
9:51 am 09:51 Partly Cloudy 38 3.3 25 -3.9 60 60 NW 15 24 30.02 1017 10 16.0934 N/A
10:51 am 10:51 Mostly Cloudy 41 5 23 -5 49 49 WNW 16 26 30.01 1016 10 16.0934 N/A
11:51 am 11:51 Partly Cloudy 43 6.1 21 -6.1 42 42 WNW 15 24 30 1016 10 16.0934 N/A
12:51 pm 12:51 Mostly Sunny 44 6.7 18 -7.8 35 35 WNW 13 20 29.97 1015 10 16.0934 N/A
1:51 pm 13:51 Sunny 45 7.2 17 -8.3 33 33 NW 15 24 29.96 1014 10 16.0934 N/A
2:51 pm 14:51 Mostly Sunny 46 7.8 17 -8.3 31 31 NW 21 33 29.96 1015 10 16.0934 N/A
3:51 pm 15:51 Mostly Sunny 46 7.8 15 -9.4 29 29 NW 20 31 29.97 1015 10 16.0934 N/A
4:51 pm 16:51 Sunny 44 6.7 14 -10 30 30 NW 21 33 30 1016 10 16.0934 N/A
5:51 pm 17:51 Sunny 41 5 15 -9.4 35 35 WNW 15 24 30.04 1017 10 16.0934 N/A
6:51 pm 18:51 Clear 38 3.3 15 -9.4 39 39 WNW 10 17 30.06 1018 10 16.0934 N/A
7:51 pm 19:51 Clear 36 2.2 17 -8.3 46 46 NNW 8 13 30.09 1019 10 16.0934 N/A
8:51 pm 20:51 Clear 35 1.7 16 -8.9 46 46 NNW 12 19 30.1 1019 10 16.0934 N/A
9:51 pm 21:51 Clear 34 1.1 17 -8.3 50 50 NW 12 19 30.12 1020 10 16.0934 N/A
10:51 pm 22:51 Clear 32 undefined 18 -7.8 56 56 NNW 9 15 30.14 1021 10 16.0934 N/A
11:51 pm 23:51 Clear 30 -1.1 18 -7.8 61 61 N 6 9 30.15 1021 10 16.0934 N/A

Powered by AerisWeather